Map

Track Data

SID SEASON NUMBER BASIN SUBBASIN NAME ISO_TIME NATURE LAT LON WMO_WIND WMO_PRES WMO_AGENCY TRACK_TYPE DIST2LAND LANDFALL IFLAG USA_AGENCY USA_ATCF_ID USA_LAT USA_LON USA_RECORD USA_STATUS USA_WIND USA_PRES USA_SSHS USA_R34_NE USA_R34_SE USA_R34_SW USA_R34_NW USA_R50_NE USA_R50_SE USA_R50_SW USA_R50_NW USA_R64_NE USA_R64_SE USA_R64_SW USA_R64_NW USA_POCI USA_ROCI USA_RMW USA_EYE TOKYO_LAT TOKYO_LON TOKYO_GRADE TOKYO_WIND TOKYO_PRES TOKYO_R50_DIR TOKYO_R50_LONG TOKYO_R50_SHORT TOKYO_R30_DIR TOKYO_R30_LONG TOKYO_R30_SHORT TOKYO_LAND CMA_LAT CMA_LON CMA_CAT CMA_WIND CMA_PRES HKO_LAT HKO_LON HKO_CAT HKO_WIND HKO_PRES NEWDELHI_LAT NEWDELHI_LON NEWDELHI_GRADE NEWDELHI_WIND NEWDELHI_PRES NEWDELHI_CI NEWDELHI_DP NEWDELHI_POCI REUNION_LAT REUNION_LON REUNION_TYPE REUNION_WIND REUNION_PRES REUNION_TNUM REUNION_CI REUNION_RMW REUNION_R34_NE REUNION_R34_SE REUNION_R34_SW REUNION_R34_NW REUNION_R50_NE REUNION_R50_SE REUNION_R50_SW REUNION_R50_NW REUNION_R64_NE REUNION_R64_SE REUNION_R64_SW REUNION_R64_NW BOM_LAT BOM_LON BOM_TYPE BOM_WIND BOM_PRES BOM_TNUM BOM_CI BOM_RMW BOM_R34_NE BOM_R34_SE BOM_R34_SW BOM_R34_NW BOM_R50_NE BOM_R50_SE BOM_R50_SW BOM_R50_NW BOM_R64_NE BOM_R64_SE BOM_R64_SW BOM_R64_NW BOM_ROCI BOM_POCI BOM_EYE BOM_POS_METHOD BOM_PRES_METHOD NADI_LAT NADI_LON NADI_CAT NADI_WIND NADI_PRES WELLINGTON_LAT WELLINGTON_LON WELLINGTON_WIND WELLINGTON_PRES DS824_LAT DS824_LON DS824_STAGE DS824_WIND DS824_PRES TD9636_LAT TD9636_LON TD9636_STAGE TD9636_WIND TD9636_PRES TD9635_LAT TD9635_LON TD9635_WIND TD9635_PRES TD9635_ROCI NEUMANN_LAT NEUMANN_LON NEUMANN_CLASS NEUMANN_WIND NEUMANN_PRES MLC_LAT MLC_LON MLC_CLASS MLC_WIND MLC_PRES USA_GUST BOM_GUST BOM_GUST_PER REUNION_GUST REUNION_GUST_PER USA_SEAHGT USA_SEARAD_NE USA_SEARAD_SE USA_SEARAD_SW USA_SEARAD_NW STORM_SPEED STORM_DIR
1901185N10305 1901 21 NA NA NOT_NAMED 1901-07-04 00:00:00 TS 9.50000 -55.5000 30 hurdat_atl main 403 403 O_____________ hurdat_atl AL031901 9.50000 -55.5000 TD 30 -1 7 339
1901185N10305 1901 21 NA NA NOT_NAMED 1901-07-04 03:00:00 TS 9.84001 -55.6350 main 423 420 P_____________ AL031901 9.84001 -55.6350 TD 32 -1 8 337
1901185N10305 1901 21 NA NA NOT_NAMED 1901-07-04 06:00:00 TS 10.2000 -55.8000 35 hurdat_atl main 429 427 O_____________ hurdat_atl AL031901 10.2000 -55.8000 TS 35 0 8 333
1901185N10305 1901 21 NA NA NOT_NAMED 1901-07-04 09:00:00 TS 10.5925 -56.0201 main 439 439 P_____________ AL031901 10.5925 -56.0201 TS 32 -1 9 328
1901185N10305 1901 21 NA NA NOT_NAMED 1901-07-04 12:00:00 TS 11.0000 -56.3000 30 hurdat_atl main 448 448 O_____________ hurdat_atl AL031901 11.0000 -56.3000 TD 30 -1 10 324
1901185N10305 1901 21 NA NA NOT_NAMED 1901-07-04 15:00:00 TS 11.4075 -56.6275 main 462 453 P_____________ AL031901 11.4075 -56.6275 TD 30 -1 11 319
1901185N10305 1901 21 NA NA NOT_NAMED 1901-07-04 18:00:00 TS 11.8000 -57.0000 30 hurdat_atl main 453 422 O_____________ hurdat_atl AL031901 11.8000 -57.0000 TD 30 -1 11 315
1901185N10305 1901 21 NA NA NOT_NAMED 1901-07-04 21:00:00 TS 12.1574 -57.3851 main 427 402 P_____________ AL031901 12.1574 -57.3851 TD 32 -1 11 312
1901185N10305 1901 21 NA NA NOT_NAMED 1901-07-05 00:00:00 TS 12.5000 -57.8000 35 hurdat_atl main 402 385 O_____________ hurdat_atl AL031901 12.5000 -57.8000 TS 35 0 11 310
1901185N10305 1901 21 NA NA NOT_NAMED 1901-07-05 03:00:00 TS 12.8649 -58.2350 main 392 374 P_____________ AL031901 12.8649 -58.2350 TS 35 0 11 309
1901185N10305 1901 21 NA NA NOT_NAMED 1901-07-05 06:00:00 TS 13.2000 -58.7000 35 hurdat_atl main 375 360 O_____________ hurdat_atl AL031901 13.2000 -58.7000 TS 35 0 11 302
1901185N10305 1901 21 NA NA NOT_NAMED 1901-07-05 09:00:00 TS 13.4499 -59.1853 main 360 358 P_____________ AL031901 13.4499 -59.1853 TS 35 0 11 297
1901185N10305 1901 21 NA CS NOT_NAMED 1901-07-05 12:00:00 TS 13.7000 -59.7000 35 hurdat_atl main 364 360 O_____________ hurdat_atl AL031901 13.7000 -59.7000 TS 35 0 12 300
1901185N10305 1901 21 NA CS NOT_NAMED 1901-07-05 15:00:00 TS 14.0424 -60.2425 main 379 379 P_____________ AL031901 14.0424 -60.2425 TS 35 0 13 303
1901185N10305 1901 21 NA CS NOT_NAMED 1901-07-05 18:00:00 TS 14.4000 -60.8000 35 hurdat_atl main 414 414 O_____________ hurdat_atl AL031901 14.4000 -60.8000 TS 35 0 13 302
1901185N10305 1901 21 NA CS NOT_NAMED 1901-07-05 21:00:00 TS 14.7149 -61.3501 main 447 447 P_____________ AL031901 14.7149 -61.3501 TS 35 0 12 299
1901185N10305 1901 21 NA CS NOT_NAMED 1901-07-06 00:00:00 TS 15.0000 -61.9000 35 hurdat_atl main 481 470 O_____________ hurdat_atl AL031901 15.0000 -61.9000 TS 35 0 12 297
1901185N10305 1901 21 NA CS NOT_NAMED 1901-07-06 03:00:00 TS 15.2649 -62.4501 main 462 408 P_____________ AL031901 15.2649 -62.4501 TS 37 0 12 295
1901185N10305 1901 21 NA CS NOT_NAMED 1901-07-06 06:00:00 TS 15.5000 -63.0000 40 hurdat_atl main 408 355 O_____________ hurdat_atl AL031901 15.5000 -63.0000 TS 40 0 11 291
1901185N10305 1901 21 NA CS NOT_NAMED 1901-07-06 09:00:00 TS 15.6849 -63.5578 main 347 296 P_____________ AL031901 15.6849 -63.5578 TS 42 0 11 291
1901185N10305 1901 21 NA CS NOT_NAMED 1901-07-06 12:00:00 TS 15.9000 -64.1000 45 hurdat_atl main 296 238 O_____________ hurdat_atl AL031901 15.9000 -64.1000 TS 45 0 11 298
1901185N10305 1901 21 NA CS NOT_NAMED 1901-07-06 15:00:00 TS 16.2197 -64.5927 main 238 173 P_____________ AL031901 16.2197 -64.5927 TS 47 0 12 306
1901185N10305 1901 21 NA CS NOT_NAMED 1901-07-06 18:00:00 TS 16.6000 -65.1000 50 hurdat_atl main 173 113 O_____________ hurdat_atl AL031901 16.6000 -65.1000 TS 50 0 13 307
1901185N10305 1901 21 NA CS NOT_NAMED 1901-07-06 21:00:00 TS 16.9924 -65.6777 main 112 55 P_____________ AL031901 16.9924 -65.6777 TS 52 0 14 305
1901185N10305 1901 21 NA CS NOT_NAMED 1901-07-07 00:00:00 TS 17.4000 -66.3000 55 hurdat_atl main 56 11 O_____________ hurdat_atl AL031901 17.4000 -66.3000 TS 55 0 15 304
1901185N10305 1901 21 NA CS NOT_NAMED 1901-07-07 03:00:00 TS 17.7998 -66.9353 main 11 0 P_____________ AL031901 17.7998 -66.9353 TS 57 0 15 303
1901185N10305 1901 21 NA CS NOT_NAMED 1901-07-07 06:00:00 TS 18.2000 -67.6000 60 hurdat_atl main 38 0 O_____________ hurdat_atl AL031901 18.2000 -67.6000 TS 60 0 15 301
1901185N10305 1901 21 NA CS NOT_NAMED 1901-07-07 09:00:00 TS 18.5850 -68.3078 main 0 0 P_____________ AL031901 18.5850 -68.3078 TS 60 0 16 301
1901185N10305 1901 21 NA NA NOT_NAMED 1901-07-07 12:00:00 TS 19.0000 -69.0000 60 hurdat_atl main 10 0 O_____________ hurdat_atl AL031901 19.0000 -69.0000 TS 60 0 15 305
1901185N10305 1901 21 NA NA NOT_NAMED 1901-07-07 15:00:00 TS 19.4622 -69.6230 main 23 15 P_____________ AL031901 19.4622 -69.6230 TS 60 0 15 311
1901185N10305 1901 21 NA NA NOT_NAMED 1901-07-07 18:00:00 TS 20.0000 -70.2000 60 hurdat_atl main 39 39 O_____________ hurdat_atl AL031901 20.0000 -70.2000 TS 60 0 16 317
1901185N10305 1901 21 NA NA NOT_NAMED 1901-07-07 21:00:00 TS 20.6124 -70.7728 main 89 89 P_____________ AL031901 20.6124 -70.7728 TS 60 0 17 322
1901185N10305 1901 21 NA NA NOT_NAMED 1901-07-08 00:00:00 TS 21.3000 -71.3000 60 hurdat_atl main 167 155 O_____________ hurdat_atl AL031901 21.3000 -71.3000 TS 60 0 17 327
1901185N10305 1901 21 NA NA NOT_NAMED 1901-07-08 03:00:00 TS 22.0196 -71.7510 main 152 152 P_____________ AL031901 22.0196 -71.7510 TS 60 0 17 331
1901185N10305 1901 21 NA NA NOT_NAMED 1901-07-08 06:00:00 TS 22.8000 -72.2000 60 hurdat_atl main 196 196 O_____________ hurdat_atl AL031901 22.8000 -72.2000 TS 60 0 18 331
1901185N10305 1901 21 NA NA NOT_NAMED 1901-07-08 09:00:00 TS 23.6199 -72.7282 main 270 270 P_____________ AL031901 23.6199 -72.7282 TS 60 0 20 329
1901185N10305 1901 21 NA NA NOT_NAMED 1901-07-08 12:00:00 TS 24.5000 -73.3000 60 hurdat_atl main 369 369 O_____________ hurdat_atl AL031901 24.5000 -73.3000 TS 60 0 21 330
1901185N10305 1901 21 NA NA NOT_NAMED 1901-07-08 15:00:00 TS 25.4797 -73.8850 main 398 379 P_____________ AL031901 25.4797 -73.8850 TS 60 0 22 330
1901185N10305 1901 21 NA NA NOT_NAMED 1901-07-08 18:00:00 TS 26.4000 -74.5000 60 hurdat_atl main 379 358 O_____________ hurdat_atl AL031901 26.4000 -74.5000 TS 60 0 20 324
1901185N10305 1901 21 NA NA NOT_NAMED 1901-07-08 21:00:00 TS 27.0952 -75.1806 main 357 357 P_____________ AL031901 27.0952 -75.1806 TS 60 0 17 318
1901185N10305 1901 21 NA NA NOT_NAMED 1901-07-09 00:00:00 TS 27.7000 -75.8000 60 hurdat_atl main 363 363 O_____________ hurdat_atl AL031901 27.7000 -75.8000 TS 60 0 16 322
1901185N10305 1901 21 NA NA NOT_NAMED 1901-07-09 03:00:00 TS 28.3348 -76.2902 main 395 382 P_____________ AL031901 28.3348 -76.2902 TS 60 0 15 332
1901185N10305 1901 21 NA NA NOT_NAMED 1901-07-09 06:00:00 TS 29.0000 -76.6000 60 hurdat_atl main 383 377 O_____________ hurdat_atl AL031901 29.0000 -76.6000 TS 60 0 15 343
1901185N10305 1901 21 NA NA NOT_NAMED 1901-07-09 09:00:00 TS 29.7496 -76.7696 main 383 377 P_____________ AL031901 29.7496 -76.7696 TS 60 0 15 357
1901185N10305 1901 21 NA NA NOT_NAMED 1901-07-09 12:00:00 TS 30.5000 -76.7000 60 hurdat_atl main 377 346 O_____________ hurdat_atl AL031901 30.5000 -76.7000 TS 60 0 15 14
1901185N10305 1901 21 NA NA NOT_NAMED 1901-07-09 15:00:00 TS 31.1727 -76.3684 main 336 305 P_____________ AL031901 31.1727 -76.3684 TS 60 0 15 28
1901185N10305 1901 21 NA NA NOT_NAMED 1901-07-09 18:00:00 TS 31.8000 -75.9000 60 hurdat_atl main 305 269 O_____________ hurdat_atl AL031901 31.8000 -75.9000 TS 60 0 15 30
1901185N10305 1901 21 NA NA NOT_NAMED 1901-07-09 21:00:00 TS 32.4448 -75.5073 main 272 229 P_____________ AL031901 32.4448 -75.5073 TS 62 0 14 29
1901185N10305 1901 21 NA NA NOT_NAMED 1901-07-10 00:00:00 TS 33.0000 -75.1000 65 hurdat_atl main 229 220 O_____________ hurdat_atl AL031901 33.0000 -75.1000 HU 65 1 12 39
1901185N10305 1901 21 NA NA NOT_NAMED 1901-07-10 03:00:00 TS 33.3727 -74.6195 main 226 226 P_____________ AL031901 33.3727 -74.6195 HU 67 1 10 47
1901185N10305 1901 21 NA NA NOT_NAMED 1901-07-10 06:00:00 TS 33.7000 -74.2000 70 hurdat_atl main 234 227 O_____________ hurdat_atl AL031901 33.7000 -74.2000 HU 70 1 9 37
1901185N10305 1901 21 NA NA NOT_NAMED 1901-07-10 09:00:00 TS 34.1198 -73.9324 main 234 204 P_____________ AL031901 34.1198 -73.9324 HU 70 1 10 20
1901185N10305 1901 21 NA NA NOT_NAMED 1901-07-10 12:00:00 TS 34.6000 -73.8000 70 hurdat_atl main 204 175 O_____________ hurdat_atl AL031901 34.6000 -73.8000 HU 70 1 11 10
1901185N10305 1901 21 NA NA NOT_NAMED 1901-07-10 15:00:00 TS 35.1872 -73.7102 main 175 153 P_____________ AL031901 35.1872 -73.7102 HU 70 1 11 0
1901185N10305 1901 21 NA NA NOT_NAMED 1901-07-10 18:00:00 TS 35.7000 -73.8000 70 hurdat_atl main 153 127 O_____________ hurdat_atl AL031901 35.7000 -73.8000 HU 70 1 9 337
1901185N10305 1901 21 NA NA NOT_NAMED 1901-07-10 21:00:00 TS 35.9826 -74.1245 main 127 87 P_____________ AL031901 35.9826 -74.1245 HU 70 1 8 302
1901185N10305 1901 21 NA NA NOT_NAMED 1901-07-11 00:00:00 TS 36.1000 -74.6000 70 hurdat_atl main 87 58 O_____________ hurdat_atl AL031901 36.1000 -74.6000 HU 70 1 8 286
1901185N10305 1901 21 NA NA NOT_NAMED 1901-07-11 03:00:00 TS 36.2049 -75.0606 main 50 8 P_____________ AL031901 36.2049 -75.0606 HU 70 1 8 270
1901185N10305 1901 21 NA NA NOT_NAMED 1901-07-11 06:00:00 TS 36.1000 -75.6000 70 hurdat_atl main 8 0 O_____________ hurdat_atl AL031901 36.1000 -75.6000 HU 70 1 9 251
1901185N10305 1901 21 NA NA NOT_NAMED 1901-07-11 07:00:00 TS 36.0000 -75.8000 70 hurdat_atl main 8 0 O_____________ hurdat_atl AL031901 36.0000 -75.8000 L HU 70 1 9 233
1901185N10305 1901 21 NA NA NOT_NAMED 1901-07-11 09:00:00 TS 35.8190 -76.0550 main 0 0 P_____________ AL031901 35.8190 -76.0550 HU 65 1 6 219
1901185N10305 1901 21 NA NA NOT_NAMED 1901-07-11 12:00:00 TS 35.6000 -76.2000 60 hurdat_atl main 0 0 O_____________ hurdat_atl AL031901 35.6000 -76.2000 TS 60 0 4 211
1901185N10305 1901 21 NA NA NOT_NAMED 1901-07-11 15:00:00 TS 35.4570 -76.3227 main 0 0 P_____________ AL031901 35.4570 -76.3227 TS 55 0 3 208
1901185N10305 1901 21 NA NA NOT_NAMED 1901-07-11 18:00:00 TS 35.3000 -76.4000 50 hurdat_atl main 0 0 O_____________ hurdat_atl AL031901 35.3000 -76.4000 TS 50 0 5 198
1901185N10305 1901 21 NA NA NOT_NAMED 1901-07-11 21:00:00 TS 35.0150 -76.5000 main 0 0 P_____________ AL031901 35.0150 -76.5000 TS 45 0 6 195
1901185N10305 1901 21 NA NA NOT_NAMED 1901-07-12 00:00:00 TS 34.7000 -76.6000 40 hurdat_atl main 0 0 O_____________ hurdat_atl AL031901 34.7000 -76.6000 TS 40 0 6 195
1901185N10305 1901 21 NA NA NOT_NAMED 1901-07-12 03:00:00 TS 34.4200 -76.6925 main 33 33 P_____________ AL031901 34.4200 -76.6925 TS 40 0 5 198
1901185N10305 1901 21 NA NA NOT_NAMED 1901-07-12 06:00:00 TS 34.2000 -76.8000 40 hurdat_atl main 55 55 O_____________ hurdat_atl AL031901 34.2000 -76.8000 TS 40 0 4 209
1901185N10305 1901 21 NA NA NOT_NAMED 1901-07-12 09:00:00 TS 34.0699 -76.9274 main 63 57 P_____________ AL031901 34.0699 -76.9274 TS 37 0 3 231
1901185N10305 1901 21 NA NA NOT_NAMED 1901-07-12 12:00:00 TS 34.0000 -77.1000 35 hurdat_atl main 62 56 O_____________ hurdat_atl AL031901 34.0000 -77.1000 TS 35 0 4 246
1901185N10305 1901 21 NA NA NOT_NAMED 1901-07-12 15:00:00 TS 33.9202 -77.3405 main 56 35 P_____________ AL031901 33.9202 -77.3405 TS 35 0 4 256
1901185N10305 1901 21 NA NA NOT_NAMED 1901-07-12 18:00:00 TS 33.9000 -77.6000 35 hurdat_atl main 35 14 O_____________ hurdat_atl AL031901 33.9000 -77.6000 TS 35 0 4 279
1901185N10305 1901 21 NA NA NOT_NAMED 1901-07-12 21:00:00 TS 33.9805 -77.8158 main 14 9 P_____________ AL031901 33.9805 -77.8158 TS 35 0 4 292
1901185N10305 1901 21 NA NA NOT_NAMED 1901-07-12 22:00:00 TS 34.0000 -77.9000 35 hurdat_atl main 9 0 O_____________ hurdat_atl AL031901 34.0000 -77.9000 L TS 35 0 5 275
1901185N10305 1901 21 NA NA NOT_NAMED 1901-07-13 00:00:00 TS 34.0000 -78.1000 35 hurdat_atl main 0 0 O_____________ hurdat_atl AL031901 34.0000 -78.1000 TS 35 0 5 279
1901185N10305 1901 21 NA NA NOT_NAMED 1901-07-13 03:00:00 TS 34.0702 -78.4383 main 0 0 P_____________ AL031901 34.0702 -78.4383 TS 35 0 6 289
1901185N10305 1901 21 NA NA NOT_NAMED 1901-07-13 06:00:00 TS 34.2000 -78.8000 35 hurdat_atl main 0 0 O_____________ hurdat_atl AL031901 34.2000 -78.8000 TS 35 0 6 295
1901185N10305 1901 21 NA NA NOT_NAMED 1901-07-13 09:00:00 TS 34.3424 -79.1500 main 0 0 P_____________ AL031901 34.3424 -79.1500 TS 35 0 7 297
1901185N10305 1901 21 NA NA NOT_NAMED 1901-07-13 12:00:00 TS 34.5000 -79.5000 35 hurdat_atl main 0 0 O_____________ hurdat_atl AL031901 34.5000 -79.5000 TS 35 0 7 298
1901185N10305 1901 21 NA NA NOT_NAMED 1901-07-13 15:00:00 TS 34.6527 -79.8498 main 0 0 P_____________ AL031901 34.6527 -79.8498 TS 32 -1 6 298
1901185N10305 1901 21 NA NA NOT_NAMED 1901-07-13 18:00:00 TS 34.8000 -80.2000 30 hurdat_atl main 0 O_____________ hurdat_atl AL031901 34.8000 -80.2000 TD 30 -1 6 297

About IBTrACS Database

This database is a web-friendly format of International Best Track Archive for Climate Stewardship (IBTrACS), a global best track data archive curated by NOAA dating back to 1842.

Updated: 2021-10-19